Terminal Aerodrome Forecast
Issued by NWS Anchorage, AK

Home | Current Version | Previous Version | Text Only | Print | Product List | Glossary On
Versions: 1 2 3 4 5 6 7 8 9 10 11 12 13 14 15 16 17 18 19 20 21 22 23 24 25 26 27 28 29 30 31 32 33 34
000
FTAK31 PANC 051732
TAFANC
TAF
PANC 051732Z 0518/0624 32004KT P6SM SCT080 BKN110
     FM060000 25007KT P6SM SCT080 SCT120 BKN200
     FM060900 17004KT P6SM SCT080 BKN120
     FM062300 17012G20KT P6SM SCT060 BKN100=

USA.gov is the U.S. government's official web portal to all federal, state and local government web resources and services.